Date,TemperatureHighF,TemperatureAvgF,TemperatureLowF,DewpointHighF,DewpointAvgF,DewpointLowF,HumidityHigh,HumidityAvg,HumidityLow,PressureMaxIn,PressureMinIn,WindSpeedMaxMPH,WindSpeedAvgMPH,GustSpeedMaxMPH,PrecipitationSumIn
2013-4-1,67.6,51.5,42.4,41.2,37.6,33.0,83,62,33,30.18,30.03,11,1,11,0.00
2013-4-2,67.1,50.1,37.9,37.5,35.3,31.8,91,61,33,30.21,30.15,13,2,13,0.00
2013-4-3,68.2,51.1,36.3,36.6,31.5,26.0,93,54,23,30.21,30.06,15,2,15,0.00
2013-4-4,60.4,51.1,42.1,38.7,33.5,28.9,81,52,37,30.06,29.85,24,5,24,0.00
2013-4-5,52.3,43.4,39.2,40.8,34.7,27.2,95,73,40,30.03,29.94,20,6,20,0.07
2013-4-6,50.2,42.0,36.9,38.2,33.0,24.5,98,72,39,30.03,29.83,20,6,20,0.00
2013-4-7,49.1,38.9,31.8,37.3,29.2,19.4,96,70,37,29.88,29.71,29,6,29,0.00
2013-4-8,49.5,36.3,27.7,24.8,21.1,16.7,79,55,37,30.21,29.88,14,2,14,0.00
2013-4-9,64.0,43.9,28.8,34.4,25.7,18.7,78,52,24,30.30,30.21,11,1,11,0.00
2013-4-10,59.9,49.1,38.7,42.5,32.8,26.7,74,55,34,30.27,30.15,21,4,21,0.00
2013-4-11,61.9,43.5,30.0,27.2,24.6,20.0,84,51,25,30.21,30.15,12,1,12,0.00
2013-4-12,59.7,43.4,28.4,32.8,24.9,15.3,85,53,19,30.15,29.83,26,5,28,0.00
2013-4-13,52.5,41.5,30.9,30.6,19.3,12.4,61,41,28,30.03,29.80,20,3,20,0.00
2013-4-14,45.1,33.4,25.3,28.1,19.2,13.0,89,57,38,30.03,29.88,10,1,10,0.00
2013-4-15,44.4,32.7,28.9,33.0,28.7,25.2,97,86,51,30.09,29.88,14,1,14,0.40
2013-4-16,42.8,33.1,28.4,33.6,27.3,20.3,98,81,43,30.30,30.09,11,1,11,0.13
2013-4-17,56.7,39.4,28.0,26.6,19.2,12.8,85,46,27,30.39,30.30,14,1,14,0.23
2013-4-18,64.9,46.3,32.9,35.9,29.6,21.2,75,55,33,30.36,30.30,13,2,13,0.00
2013-4-19,57.2,47.1,39.6,38.9,33.9,27.0,83,62,36,30.30,30.15,17,4,17,0.00
2013-4-20,64.8,47.2,34.2,32.3,29.9,26.1,88,56,26,30.27,30.21,12,2,12,0.00
2013-4-21,61.3,47.6,35.1,34.6,31.3,25.4,81,56,34,30.24,30.18,12,2,12,0.00
2013-4-22,60.4,44.3,35.4,34.0,25.4,13.5,85,53,25,30.39,30.24,12,1,12,0.00
2013-4-23,69.3,47.3,29.5,22.6,15.0,5.4,43,29,15,30.36,30.15,11,1,11,0.00
2013-4-24,74.8,53.0,34.7,27.9,18.4,11.2,38,27,16,30.30,30.12,8,1,8,0.00
2013-4-25,76.1,56.2,38.8,34.7,24.7,14.1,42,30,22,30.21,30.09,16,2,16,0.00
2013-4-26,82.0,60.5,43.3,36.3,30.3,24.3,63,35,15,30.33,30.21,16,2,16,0.00
2013-4-27,68.4,57.4,42.1,32.9,28.8,24.9,61,36,22,30.33,30.21,17,4,17,0.00
2013-4-28,69.8,58.1,47.3,33.2,29.3,22.1,57,34,23,30.24,30.12,19,2,19,0.00
2013-4-29,59.7,49.5,35.1,40.6,30.3,19.7,87,51,27,30.12,30.03,20,4,20,0.00
2013-4-30,57.2,40.1,26.1,23.5,19.4,14.9,76,46,25,30.36,30.09,13,1,13,0.00